DNMM/LOS METAR and TAF weather

Enter ICAO airport designator
Station Type Date Time Source
DNMM METAR 2022/12/05 15:00 UTC NOAA

DNMM 051500Z 20004KT 8000 SCT015 33/25 Q1009 TEMPO SCT015 FEW020CB


Station Type Date Time Source
DNMM Decoded METAR 2022/12/05 15:00 UTC NOAA

Lagos / Ikeja, Nigeria (DNMM) 06-35N 003-20E 38M
Dec 05, 2022 - 10:00 AM EST / 2022.12.05 1500 UTC
Wind: from the SSW (200 degrees) at 5 MPH (4 KT):0
Visibility: 4 mile(s):0
Sky conditions: partly cloudy
Weather: Cumulonimbus clouds observed
Temperature: 91 F (33 C)
Heat index: 103.5 F (39.7 C):1
Dew Point: 77 F (25 C)
Relative Humidity: 62%
Pressure (altimeter): 29.80 in. Hg (1009 hPa)
ob: DNMM 051500Z 20004KT 8000 SCT015 33/25 Q1009 TEMPO SCT015 FEW020CB
cycle: 15

Station Type Date Time Source
DNMM TAF 2022/12/05 12:41 UTC NOAA

TAF DNMM 051100Z 0512/0618 30010KT 8000 BKN013
TEMPO 0513/0518 17010KT TS SCT013 FEW020CB
BECMG 0518/0520 VRB02KT SCT011
BECMG 0608/0610 24010KT BKN013
TEMPO 0613/0618 SCT013 FEW020CB

Example: see airport list